createdAt,value
2019-02-06T00:00:53.324Z,17.57
2019-02-06T00:01:58.605Z,17.20
2019-02-06T00:03:02.243Z,18.37
2019-02-06T00:04:06.080Z,17.30
2019-02-06T00:05:14.091Z,17.83
2019-02-06T00:06:15.633Z,18.00
2019-02-06T00:07:19.276Z,17.50
2019-02-06T00:08:23.018Z,16.90
2019-02-06T00:09:26.711Z,16.30
2019-02-06T00:10:30.405Z,16.90
2019-02-06T00:11:35.153Z,18.00
2019-02-06T00:12:39.129Z,16.63
2019-02-06T00:13:42.776Z,16.63
2019-02-06T00:14:46.576Z,17.17
2019-02-06T00:15:50.229Z,17.07
2019-02-06T00:16:53.869Z,18.03
2019-02-06T00:17:57.652Z,17.57
2019-02-06T00:19:01.694Z,18.13
2019-02-06T00:20:08.354Z,17.97
2019-02-06T00:21:12.049Z,17.77
2019-02-06T00:22:15.681Z,18.00
2019-02-06T00:23:19.316Z,18.73
2019-02-06T00:24:23.128Z,17.13
2019-02-06T00:25:26.833Z,18.57
2019-02-06T00:26:30.527Z,17.73
2019-02-06T00:27:34.151Z,19.67
2019-02-06T00:28:37.788Z,18.47
2019-02-06T00:29:41.452Z,18.00
2019-02-06T00:30:45.256Z,18.23
2019-02-06T00:31:48.942Z,17.83
2019-02-06T00:32:52.941Z,17.90
2019-02-06T00:33:56.946Z,16.93
2019-02-06T00:35:00.900Z,18.10
2019-02-06T00:36:04.633Z,17.67
2019-02-06T00:37:08.371Z,17.93
2019-02-06T00:38:12.033Z,17.00
2019-02-06T00:39:15.673Z,17.43
2019-02-06T00:40:19.313Z,16.90
2019-02-06T00:41:23.151Z,17.27
2019-02-06T00:42:26.809Z,17.30
2019-02-06T00:43:30.524Z,16.47
2019-02-06T00:44:34.162Z,16.47
2019-02-06T00:45:37.866Z,17.27
2019-02-06T00:47:00.627Z,17.10
2019-02-06T00:48:04.288Z,17.20
2019-02-06T00:49:08.002Z,17.47
2019-02-06T00:50:14.683Z,18.07
2019-02-06T00:51:18.313Z,16.23
2019-02-06T00:52:22.335Z,17.40
2019-02-06T00:53:25.971Z,16.13
2019-02-06T00:54:29.908Z,17.50
2019-02-06T00:55:33.623Z,16.67
2019-02-06T00:56:37.261Z,16.67
2019-02-06T00:57:41.586Z,17.17
2019-02-06T00:58:45.374Z,16.20
2019-02-06T00:59:49.007Z,18.07
2019-02-06T01:00:52.645Z,15.90
2019-02-06T01:01:56.268Z,16.03
2019-02-06T01:02:59.907Z,17.63
2019-02-06T01:04:03.587Z,17.30
2019-02-06T01:05:10.158Z,17.23
2019-02-06T01:06:13.976Z,16.70
2019-02-06T01:07:18.203Z,15.33
2019-02-06T01:08:21.856Z,15.87
2019-02-06T01:09:25.536Z,15.57
2019-02-06T01:10:29.177Z,15.10
2019-02-06T01:11:32.812Z,16.13
2019-02-06T01:12:36.490Z,15.87
2019-02-06T01:13:40.115Z,15.90
2019-02-06T01:14:43.783Z,15.83
2019-02-06T01:15:47.489Z,15.77
2019-02-06T01:16:51.189Z,17.00
2019-02-06T01:17:54.830Z,15.77
2019-02-06T01:18:58.510Z,16.03
2019-02-06T01:20:02.529Z,16.30
2019-02-06T01:21:06.684Z,17.30
2019-02-06T01:22:10.531Z,16.27
2019-02-06T01:23:16.154Z,16.73
2019-02-06T01:24:19.542Z,16.53
2019-02-06T01:25:23.226Z,16.57
2019-02-06T01:26:26.847Z,16.27
2019-02-06T01:27:30.551Z,16.80
2019-02-06T01:28:34.191Z,16.27
2019-02-06T01:29:37.824Z,14.90
2019-02-06T01:30:43.104Z,17.17
2019-02-06T01:31:46.739Z,16.13
2019-02-06T01:32:50.664Z,16.20
2019-02-06T01:33:54.510Z,16.47
2019-02-06T01:34:58.520Z,17.73
2019-02-06T01:36:02.539Z,16.03
2019-02-06T01:37:06.178Z,15.77
2019-02-06T01:38:09.816Z,17.53
2019-02-06T01:39:13.523Z,17.33
2019-02-06T01:40:19.971Z,19.50
2019-02-06T01:41:23.645Z,20.67
2019-02-06T01:42:27.352Z,20.03
2019-02-06T01:43:30.986Z,19.13
2019-02-06T01:44:34.619Z,17.17
2019-02-06T01:45:38.331Z,17.67
2019-02-06T01:46:42.012Z,18.53
2019-02-06T01:47:45.658Z,18.47
2019-02-06T01:48:49.668Z,17.50
2019-02-06T01:49:53.316Z,15.43
2019-02-06T01:50:56.951Z,15.93
2019-02-06T01:52:00.620Z,15.77
2019-02-06T01:53:04.261Z,14.47
2019-02-06T01:54:07.903Z,15.07
2019-02-06T01:55:13.236Z,14.10
2019-02-06T01:56:16.872Z,13.97
2019-02-06T01:57:20.543Z,14.50
2019-02-06T01:58:24.175Z,14.73
2019-02-06T01:59:27.863Z,14.30
2019-02-06T02:00:31.577Z,14.37
2019-02-06T02:01:35.213Z,15.63
2019-02-06T02:02:39.263Z,14.73
2019-02-06T02:03:43.275Z,14.43
2019-02-06T02:04:47.007Z,14.70
2019-02-06T02:06:01.443Z,14.70
2019-02-06T02:06:56.060Z,14.67
2019-02-06T02:07:59.728Z,15.10
2019-02-06T02:09:04.535Z,15.27
2019-02-06T02:10:10.435Z,14.27
2019-02-06T02:11:14.146Z,14.80
2019-02-06T02:12:17.852Z,15.07
2019-02-06T02:13:21.520Z,15.30
2019-02-06T02:14:25.155Z,14.83
2019-02-06T02:15:28.794Z,15.07
2019-02-06T02:16:32.699Z,15.63
2019-02-06T02:17:36.719Z,15.30
2019-02-06T02:18:40.484Z,15.77
2019-02-06T02:19:44.111Z,14.43
2019-02-06T02:20:47.746Z,14.50
2019-02-06T02:21:51.451Z,14.63
2019-02-06T02:22:55.085Z,14.77
2019-02-06T02:23:58.753Z,14.80
2019-02-06T02:25:02.389Z,14.60
2019-02-06T02:26:06.132Z,14.37
2019-02-06T02:27:11.287Z,11.47
2019-02-06T02:28:15.285Z,12.50
2019-02-06T02:29:19.053Z,12.83
2019-02-06T02:30:33.206Z,13.70
2019-02-06T02:31:36.835Z,12.50
2019-02-06T02:32:40.455Z,12.30
2019-02-06T02:33:44.369Z,12.60
2019-02-06T02:34:48.039Z,12.90
2019-02-06T02:35:51.680Z,11.60
2019-02-06T02:36:55.313Z,12.30
2019-02-06T02:37:58.950Z,11.93
2019-02-06T02:39:03.061Z,11.30
2019-02-06T02:40:09.606Z,10.73
2019-02-06T02:41:13.230Z,9.80
2019-02-06T02:42:16.992Z,9.57
2019-02-06T02:43:20.688Z,8.80
2019-02-06T02:44:24.341Z,8.40
2019-02-06T02:45:28.073Z,8.27
2019-02-06T02:46:32.092Z,9.17
2019-02-06T02:47:35.727Z,9.33
2019-02-06T02:48:39.736Z,9.73
2019-02-06T02:49:43.371Z,10.70
2019-02-06T02:50:47.016Z,12.20
2019-02-06T02:51:50.646Z,14.83
2019-02-06T02:52:54.286Z,14.70
2019-02-06T02:53:57.928Z,15.07
2019-02-06T02:55:01.726Z,14.40
2019-02-06T02:56:05.362Z,15.83
2019-02-06T02:57:09.069Z,14.37
2019-02-06T02:58:12.776Z,14.03
2019-02-06T02:59:16.457Z,14.70
2019-02-06T03:00:28.591Z,14.03
2019-02-06T03:01:39.890Z,13.17
2019-02-06T03:02:45.185Z,16.07
2019-02-06T03:03:50.463Z,15.43
2019-02-06T03:06:33.558Z,15.67
2019-02-06T03:07:37.194Z,14.73
2019-02-06T03:08:40.899Z,14.90
2019-02-06T03:09:44.542Z,14.37
2019-02-06T03:10:48.212Z,15.63
2019-02-06T03:11:51.853Z,14.23
2019-02-06T03:12:55.851Z,15.40
2019-02-06T03:13:59.743Z,15.03
2019-02-06T03:15:04.649Z,14.87
2019-02-06T03:16:08.312Z,14.53
2019-02-06T03:17:11.891Z,14.37
2019-02-06T03:18:15.539Z,13.97
2019-02-06T03:19:19.809Z,13.80
2019-02-06T03:20:23.524Z,13.33
2019-02-06T03:21:27.222Z,12.73
2019-02-06T03:22:32.937Z,13.57
2019-02-06T03:23:36.151Z,13.03
2019-02-06T03:24:39.791Z,13.13
2019-02-06T03:25:43.494Z,13.13
2019-02-06T03:26:47.249Z,14.80
2019-02-06T03:27:50.854Z,13.80
2019-02-06T03:28:54.847Z,13.00
2019-02-06T03:29:58.584Z,14.07
2019-02-06T03:31:02.230Z,13.57
2019-02-06T03:32:05.994Z,13.70
2019-02-06T03:33:09.746Z,13.93
2019-02-06T03:34:13.458Z,12.70
2019-02-06T03:35:18.564Z,14.43
2019-02-06T03:36:22.266Z,13.37
2019-02-06T03:37:25.880Z,13.03
2019-02-06T03:38:29.579Z,12.77
2019-02-06T03:39:33.669Z,11.40
2019-02-06T03:40:37.307Z,10.87
2019-02-06T03:41:41.146Z,12.37
2019-02-06T03:42:45.357Z,13.97
2019-02-06T03:43:49.462Z,11.97
2019-02-06T03:44:53.106Z,11.30
2019-02-06T03:45:56.741Z,11.03
2019-02-06T03:47:00.377Z,10.37
2019-02-06T03:48:04.033Z,10.37
2019-02-06T03:49:08.069Z,8.23
2019-02-06T03:50:14.810Z,9.70
2019-02-06T03:51:18.447Z,9.30
2019-02-06T03:52:22.023Z,9.00
2019-02-06T03:53:26.118Z,8.83
2019-02-06T03:54:29.739Z,6.20
2019-02-06T03:55:33.717Z,6.17
2019-02-06T03:56:37.339Z,6.00
2019-02-06T03:57:41.431Z,5.47
2019-02-06T03:58:45.080Z,5.60
2019-02-06T03:59:48.728Z,5.60
2019-02-06T04:00:52.333Z,5.40
2019-02-06T04:01:55.967Z,5.30
2019-02-06T04:02:59.977Z,5.13
2019-02-06T04:04:04.142Z,5.00
2019-02-06T04:05:09.761Z,5.27
2019-02-06T04:06:13.389Z,5.40
2019-02-06T04:07:17.014Z,5.17
2019-02-06T04:08:20.761Z,5.47
2019-02-06T04:09:24.392Z,4.90
2019-02-06T04:10:28.133Z,4.77
2019-02-06T04:11:32.189Z,5.47
2019-02-06T04:12:35.823Z,4.70
2019-02-06T04:13:39.437Z,5.47
2019-02-06T04:14:43.084Z,5.20
2019-02-06T04:15:46.802Z,4.73
2019-02-06T04:16:50.868Z,4.70
2019-02-06T04:17:54.676Z,5.30
2019-02-06T04:18:58.399Z,4.87
2019-02-06T04:20:02.058Z,4.53
2019-02-06T04:21:05.989Z,4.53
2019-02-06T04:22:09.606Z,4.50
2019-02-06T04:23:14.870Z,4.70
2019-02-06T04:24:18.494Z,4.97
2019-02-06T04:25:22.202Z,3.77
2019-02-06T04:26:26.302Z,4.10
2019-02-06T04:27:30.100Z,4.17
2019-02-06T04:28:34.139Z,4.30
2019-02-06T04:29:37.775Z,4.37
2019-02-06T04:30:41.423Z,4.97
2019-02-06T04:31:45.050Z,3.63
2019-02-06T04:32:48.873Z,3.60
2019-02-06T04:33:52.491Z,4.00
2019-02-06T04:34:56.212Z,3.77
2019-02-06T04:35:59.939Z,3.70
2019-02-06T04:37:06.564Z,3.97
2019-02-06T04:38:09.034Z,3.87
2019-02-06T04:39:12.658Z,3.97
2019-02-06T04:40:20.961Z,5.77
2019-02-06T04:41:25.009Z,4.57
2019-02-06T04:42:28.766Z,4.23
2019-02-06T04:43:32.383Z,4.27
2019-02-06T04:44:36.013Z,4.30
2019-02-06T04:45:39.576Z,3.90
2019-02-06T04:46:43.296Z,4.40
2019-02-06T04:47:47.154Z,5.27
2019-02-06T04:48:50.823Z,5.13
2019-02-06T04:49:54.457Z,5.13
2019-02-06T04:50:58.156Z,4.30
2019-02-06T04:52:01.835Z,4.50
2019-02-06T04:53:06.458Z,4.23
2019-02-06T04:54:10.073Z,3.90
2019-02-06T04:55:16.215Z,5.13
2019-02-06T04:56:20.359Z,3.90
2019-02-06T04:57:24.052Z,4.57
2019-02-06T04:58:27.734Z,4.10
2019-02-06T04:59:31.357Z,4.60
2019-02-06T05:00:34.987Z,4.73
2019-02-06T05:01:38.610Z,3.93
2019-02-06T05:02:42.326Z,4.23
2019-02-06T05:03:45.933Z,8.37
2019-02-06T05:04:49.596Z,7.87
2019-02-06T05:05:53.225Z,6.53
2019-02-06T05:06:56.841Z,4.80
2019-02-06T05:08:00.511Z,5.23
2019-02-06T05:09:06.671Z,4.30
2019-02-06T05:10:13.180Z,3.53
2019-02-06T05:11:16.876Z,3.70
2019-02-06T05:12:20.510Z,6.03
2019-02-06T05:13:24.167Z,3.73
2019-02-06T05:14:27.805Z,3.80
2019-02-06T05:15:31.423Z,4.57
2019-02-06T05:16:35.042Z,4.20
2019-02-06T05:17:38.764Z,3.83
2019-02-06T05:18:42.407Z,4.03
2019-02-06T05:19:46.114Z,4.73
2019-02-06T05:20:50.123Z,4.50
2019-02-06T05:21:53.807Z,4.50
2019-02-06T05:22:57.515Z,3.70
2019-02-06T05:24:01.534Z,3.80
2019-02-06T05:25:06.230Z,4.63
2019-02-06T05:26:09.850Z,3.80
2019-02-06T05:27:13.486Z,3.97
2019-02-06T05:28:18.265Z,4.00
2019-02-06T05:29:22.132Z,4.30
2019-02-06T05:30:25.777Z,4.37
2019-02-06T05:31:29.393Z,4.23
2019-02-06T05:32:32.942Z,4.40
2019-02-06T05:33:36.683Z,4.10
2019-02-06T05:34:40.317Z,4.57
2019-02-06T05:35:44.008Z,4.17
2019-02-06T05:36:50.839Z,4.93
2019-02-06T05:37:53.012Z,4.07
2019-02-06T05:38:56.642Z,4.37
2019-02-06T05:40:00.392Z,4.13
2019-02-06T05:41:04.106Z,4.50
2019-02-06T05:42:07.866Z,4.13
2019-02-06T05:43:11.666Z,4.47
2019-02-06T05:44:15.569Z,4.47
2019-02-06T05:45:19.577Z,7.30
2019-02-06T05:46:23.184Z,5.30
2019-02-06T05:47:26.854Z,5.30
2019-02-06T05:48:30.466Z,4.93
2019-02-06T05:49:34.096Z,5.10
2019-02-06T05:50:40.833Z,7.00
2019-02-06T05:51:45.019Z,7.23
2019-02-06T05:52:48.871Z,8.50
2019-02-06T05:53:52.481Z,6.40
2019-02-06T05:54:56.120Z,6.30
2019-02-06T05:55:59.873Z,5.10
2019-02-06T05:57:03.525Z,4.77
2019-02-06T05:58:07.171Z,5.40
2019-02-06T05:59:10.854Z,5.27
2019-02-06T06:00:26.914Z,6.13
2019-02-06T06:01:30.639Z,8.03
2019-02-06T06:02:34.290Z,6.17
2019-02-06T06:03:38.001Z,4.73
2019-02-06T06:04:41.704Z,4.50
2019-02-06T06:05:45.319Z,5.27
2019-02-06T06:06:48.950Z,6.00
2019-02-06T06:07:52.893Z,6.07
2019-02-06T06:08:56.690Z,5.70
2019-02-06T06:10:00.457Z,5.50
2019-02-06T06:11:04.223Z,5.17
2019-02-06T06:12:07.812Z,5.27
2019-02-06T06:13:11.484Z,4.73
2019-02-06T06:14:15.099Z,4.83
2019-02-06T06:15:20.545Z,4.47
2019-02-06T06:16:24.156Z,4.73
2019-02-06T06:17:27.889Z,5.57
2019-02-06T06:18:31.508Z,6.70
2019-02-06T06:19:35.256Z,6.77
2019-02-06T06:20:39.184Z,6.20
2019-02-06T06:21:43.137Z,5.53
2019-02-06T06:22:47.063Z,10.87
2019-02-06T06:23:50.714Z,6.43
2019-02-06T06:24:54.406Z,5.47
2019-02-06T06:25:58.240Z,5.40
2019-02-06T06:27:01.857Z,5.40
2019-02-06T06:28:05.579Z,5.37
2019-02-06T06:29:09.206Z,5.47
2019-02-06T06:30:20.100Z,8.30
2019-02-06T06:31:23.723Z,8.27
2019-02-06T06:32:27.458Z,9.00
2019-02-06T06:33:31.161Z,8.50
2019-02-06T06:34:35.184Z,9.47
2019-02-06T06:35:39.151Z,9.40
2019-02-06T06:36:43.174Z,9.40
2019-02-06T06:37:57.837Z,10.13
2019-02-06T06:38:52.386Z,9.07
2019-02-06T06:39:56.017Z,8.07
2019-02-06T06:40:59.773Z,9.00
2019-02-06T06:42:03.456Z,7.87
2019-02-06T06:43:07.094Z,7.63
2019-02-06T06:44:10.793Z,8.70
2019-02-06T06:45:17.351Z,7.03
2019-02-06T06:46:21.013Z,9.37
2019-02-06T06:47:24.634Z,7.63
2019-02-06T06:48:28.271Z,7.40
2019-02-06T06:49:31.897Z,7.73
2019-02-06T06:50:35.691Z,8.30
2019-02-06T06:51:39.715Z,7.10
2019-02-06T06:52:43.318Z,7.23
2019-02-06T06:53:46.967Z,8.13
2019-02-06T06:54:50.647Z,7.60
2019-02-06T06:55:54.277Z,6.97
2019-02-06T06:56:57.917Z,7.23
2019-02-06T06:58:01.559Z,6.03
2019-02-06T06:59:05.314Z,6.33
2019-02-06T07:00:11.859Z,7.60
2019-02-06T07:01:15.487Z,7.00
2019-02-06T07:02:19.143Z,8.87
2019-02-06T07:03:22.772Z,9.00
2019-02-06T07:04:26.498Z,7.17
2019-02-06T07:05:30.508Z,5.77
2019-02-06T07:06:34.240Z,5.97
2019-02-06T07:07:38.037Z,7.93
2019-02-06T07:08:42.090Z,9.43
2019-02-06T07:09:45.658Z,8.53
2019-02-06T07:10:49.279Z,6.70
2019-02-06T07:11:52.913Z,6.13
2019-02-06T07:12:57.013Z,7.37
2019-02-06T07:14:00.927Z,6.07
2019-02-06T07:15:10.499Z,4.73
2019-02-06T07:16:14.157Z,4.63
2019-02-06T07:17:17.789Z,5.27
2019-02-06T07:18:21.504Z,4.20
2019-02-06T07:19:25.213Z,4.73
2019-02-06T07:20:29.176Z,6.00
2019-02-06T07:21:33.253Z,6.17
2019-02-06T07:22:37.016Z,13.13
2019-02-06T07:23:40.783Z,13.57
2019-02-06T07:24:44.396Z,11.27
2019-02-06T07:25:48.026Z,11.73
2019-02-06T07:26:51.791Z,16.33
2019-02-06T07:27:55.513Z,7.93
2019-02-06T07:28:59.369Z,8.97
2019-02-06T07:30:03.287Z,9.73
2019-02-06T07:31:06.981Z,7.90
2019-02-06T07:32:10.762Z,7.07
2019-02-06T07:33:14.483Z,8.03
2019-02-06T07:34:18.335Z,7.57
2019-02-06T07:35:22.449Z,7.93
2019-02-06T07:36:26.150Z,7.33
2019-02-06T07:37:29.785Z,5.53
2019-02-06T07:38:33.418Z,6.70
2019-02-06T07:39:37.091Z,9.60
2019-02-06T07:40:40.732Z,9.07
2019-02-06T07:41:44.370Z,8.90
2019-02-06T07:42:47.996Z,7.30
2019-02-06T07:43:52.591Z,8.90
2019-02-06T07:44:56.744Z,10.43
2019-02-06T07:46:00.395Z,10.57
2019-02-06T07:47:04.147Z,11.97
2019-02-06T07:48:11.314Z,16.60
2019-02-06T07:49:15.164Z,13.83
2019-02-06T07:50:24.235Z,12.37
2019-02-06T07:51:27.911Z,9.97
2019-02-06T07:52:31.655Z,10.07
2019-02-06T07:53:35.281Z,8.57
2019-02-06T07:54:39.317Z,9.20
2019-02-06T07:55:42.912Z,7.27
2019-02-06T07:56:46.544Z,6.93
2019-02-06T07:57:50.251Z,5.90
2019-02-06T07:58:53.956Z,5.60
2019-02-06T07:59:57.599Z,7.20
2019-02-06T08:01:01.354Z,7.27
2019-02-06T08:02:05.110Z,8.50
2019-02-06T08:03:08.815Z,9.03
2019-02-06T08:04:12.745Z,9.43
2019-02-06T08:05:20.519Z,7.90
2019-02-06T08:06:24.194Z,6.50
2019-02-06T08:07:27.832Z,6.50
2019-02-06T08:08:36.041Z,8.67
2019-02-06T08:09:36.820Z,7.23
2019-02-06T08:10:40.439Z,8.27
2019-02-06T08:11:44.171Z,8.60
2019-02-06T08:12:48.099Z,6.87
2019-02-06T08:13:51.807Z,5.90
2019-02-06T08:14:55.444Z,5.73
2019-02-06T08:15:59.157Z,4.77
2019-02-06T09:19:33.369Z,5.50
2019-02-06T09:20:36.996Z,4.60
2019-02-06T09:21:40.648Z,10.73
2019-02-06T09:22:44.364Z,8.13
2019-02-06T09:23:47.987Z,8.17
2019-02-06T09:24:51.722Z,6.63
2019-02-06T09:25:57.474Z,8.37
2019-02-06T09:27:01.096Z,10.50
2019-02-06T09:28:04.848Z,12.83
2019-02-06T09:29:08.405Z,8.70
2019-02-06T09:30:14.966Z,9.30
2019-02-06T09:31:18.591Z,12.00
2019-02-06T09:32:22.229Z,6.57
2019-02-06T09:33:26.054Z,5.40
2019-02-06T09:34:29.679Z,7.77
2019-02-06T09:35:33.428Z,5.73
2019-02-06T09:36:37.082Z,6.40
2019-02-06T09:37:40.806Z,7.20
2019-02-06T09:38:44.725Z,5.97
2019-02-06T09:39:48.355Z,5.30
2019-02-06T09:40:52.320Z,5.80
2019-02-06T09:41:55.957Z,7.10
2019-02-06T09:42:59.772Z,6.83
2019-02-06T09:44:03.316Z,5.00
2019-02-06T09:45:08.534Z,5.50
2019-02-06T09:46:12.207Z,6.60
2019-02-06T09:47:15.895Z,7.47
2019-02-06T09:48:19.522Z,5.50
2019-02-06T09:49:23.146Z,4.80
2019-02-06T09:50:29.392Z,11.70
2019-02-06T09:51:33.034Z,9.97
2019-02-06T09:52:36.671Z,5.57
2019-02-06T09:53:40.589Z,6.67
2019-02-06T09:54:44.279Z,7.73
2019-02-06T09:55:47.911Z,9.17
2019-02-06T09:56:51.582Z,9.20
2019-02-06T09:57:55.209Z,7.77
2019-02-06T09:58:58.836Z,7.43
2019-02-06T10:00:02.631Z,5.27
2019-02-06T10:01:06.338Z,4.37
2019-02-06T10:02:10.058Z,6.43
2019-02-06T10:03:13.688Z,6.40
2019-02-06T10:04:17.343Z,5.13
2019-02-06T10:05:21.135Z,6.40
2019-02-06T10:06:24.858Z,6.90
2019-02-06T10:07:28.512Z,4.77
2019-02-06T10:08:32.522Z,6.00
2019-02-06T10:09:36.153Z,4.73
2019-02-06T10:10:39.765Z,3.53
2019-02-06T10:11:43.459Z,4.03
2019-02-06T10:12:47.182Z,4.50
2019-02-06T10:13:50.801Z,6.40
2019-02-06T10:14:54.637Z,5.20
2019-02-06T10:15:58.275Z,5.60
2019-02-06T10:17:01.896Z,5.93
2019-02-06T10:18:05.966Z,7.20
2019-02-06T10:19:09.678Z,7.13
2019-02-06T10:20:16.503Z,6.63
2019-02-06T10:21:20.184Z,5.67
2019-02-06T10:22:24.167Z,7.00
2019-02-06T10:23:28.194Z,8.23
2019-02-06T10:24:31.766Z,6.97
2019-02-06T10:25:35.912Z,4.90
2019-02-06T10:26:39.526Z,4.60
2019-02-06T10:27:43.254Z,5.50
2019-02-06T10:28:47.046Z,5.13
2019-02-06T10:29:50.677Z,6.67
2019-02-06T10:30:54.370Z,8.07
2019-02-06T10:31:58.018Z,5.70
2019-02-06T10:33:01.650Z,6.60
2019-02-06T10:34:05.424Z,8.23
2019-02-06T10:35:09.562Z,11.97
2019-02-06T10:36:13.768Z,17.07
2019-02-06T10:37:17.705Z,14.13
2019-02-06T10:38:21.337Z,13.80
2019-02-06T10:39:34.295Z,17.57
2019-02-06T10:40:30.483Z,12.37
2019-02-06T10:41:34.116Z,7.37
2019-02-06T10:42:37.811Z,12.77
2019-02-06T10:43:41.405Z,11.00
2019-02-06T10:44:45.161Z,7.33
2019-02-06T10:45:48.848Z,11.00
2019-02-06T10:46:52.508Z,10.20
2019-02-06T10:47:56.470Z,7.20
2019-02-06T10:49:00.237Z,7.03
2019-02-06T10:50:05.363Z,14.50
2019-02-06T10:51:09.579Z,8.53
2019-02-06T10:52:13.501Z,13.03
2019-02-06T10:53:17.585Z,8.57
2019-02-06T10:54:21.253Z,7.97
2019-02-06T10:55:24.955Z,9.60
2019-02-06T10:56:29.062Z,17.67
2019-02-06T10:57:32.715Z,16.20
2019-02-06T10:58:36.331Z,13.87
2019-02-06T10:59:39.968Z,7.57
2019-02-06T11:00:49.463Z,12.47
2019-02-06T11:01:53.222Z,12.97
2019-02-06T11:02:56.939Z,10.50
2019-02-06T11:04:00.751Z,12.13
2019-02-06T11:05:05.975Z,8.97
2019-02-06T11:06:09.928Z,8.17
2019-02-06T11:07:14.048Z,10.93
2019-02-06T11:08:18.277Z,14.00
2019-02-06T11:09:21.961Z,14.87
2019-02-06T11:10:27.491Z,13.70
2019-02-06T11:11:31.432Z,10.90
2019-02-06T11:12:35.431Z,17.07
2019-02-06T11:13:39.064Z,9.93
2019-02-06T11:14:42.706Z,8.03
2019-02-06T11:15:46.335Z,7.73
2019-02-06T11:16:50.409Z,14.10
2019-02-06T11:17:54.080Z,36.40
2019-02-06T11:18:57.717Z,25.67
2019-02-06T11:20:01.354Z,15.27
2019-02-06T11:21:05.859Z,27.60
2019-02-06T11:22:09.899Z,17.87
2019-02-06T11:23:13.634Z,11.80
2019-02-06T11:24:17.270Z,13.30
2019-02-06T11:25:20.924Z,11.20
2019-02-06T11:26:24.636Z,13.63
2019-02-06T11:27:28.292Z,18.37
2019-02-06T11:28:32.035Z,24.30
2019-02-06T11:29:35.671Z,19.00
2019-02-06T11:30:40.307Z,25.27
2019-02-06T11:31:44.364Z,12.77
2019-02-06T11:32:48.039Z,10.23
2019-02-06T11:33:52.055Z,8.40
2019-02-06T11:34:55.775Z,8.77
2019-02-06T11:35:59.597Z,8.90
2019-02-06T11:37:04.720Z,9.43
2019-02-06T11:38:08.880Z,9.37
2019-02-06T11:39:16.556Z,10.40
2019-02-06T11:40:24.627Z,11.23
2019-02-06T11:41:28.265Z,10.80
2019-02-06T11:42:31.996Z,16.90
2019-02-06T11:43:35.669Z,14.53
2019-02-06T11:44:39.303Z,8.17
2019-02-06T11:45:43.035Z,9.87
2019-02-06T11:46:46.684Z,13.77
2019-02-06T11:47:50.375Z,19.70
2019-02-06T11:48:54.086Z,18.50
2019-02-06T11:49:59.203Z,22.70
2019-02-06T11:51:02.839Z,19.47
2019-02-06T11:52:06.976Z,17.10
2019-02-06T11:53:12.610Z,14.20
2019-02-06T11:54:16.280Z,16.93
2019-02-06T11:55:22.215Z,15.40
2019-02-06T11:56:25.854Z,14.23
2019-02-06T11:57:29.539Z,13.13
2019-02-06T11:58:33.487Z,13.63
2019-02-06T11:59:37.489Z,15.17
2019-02-06T12:00:55.588Z,20.73
2019-02-06T12:01:59.301Z,19.93
2019-02-06T12:03:04.487Z,21.27
2019-02-06T12:04:08.136Z,23.83
2019-02-06T12:05:12.080Z,28.63
2019-02-06T12:06:15.721Z,34.87
2019-02-06T12:07:19.765Z,29.90
2019-02-06T12:08:23.478Z,26.53
2019-02-06T12:09:27.188Z,23.43
2019-02-06T12:10:31.232Z,33.70
2019-02-06T12:11:34.863Z,34.60
2019-02-06T12:12:38.500Z,23.37
2019-02-06T12:13:42.137Z,23.53
2019-02-06T12:14:45.777Z,30.27
2019-02-06T12:15:49.449Z,27.20
2019-02-06T12:16:53.078Z,35.53
2019-02-06T12:17:56.717Z,39.07
2019-02-06T12:19:00.429Z,32.43
2019-02-06T12:20:06.209Z,29.57
2019-02-06T12:21:09.885Z,18.53
2019-02-06T12:22:13.526Z,16.00
2019-02-06T12:23:17.174Z,26.07
2019-02-06T12:24:21.284Z,18.23
2019-02-06T12:25:24.930Z,19.40
2019-02-06T12:26:28.679Z,16.90
2019-02-06T12:27:32.388Z,22.77
2019-02-06T12:28:36.088Z,22.37
2019-02-06T12:29:39.719Z,18.17
2019-02-06T12:30:43.363Z,16.43
2019-02-06T12:31:47.343Z,19.27
2019-02-06T12:32:52.216Z,19.00
2019-02-06T12:33:56.313Z,17.97
2019-02-06T12:34:59.950Z,21.57
2019-02-06T12:36:04.539Z,16.97
2019-02-06T12:37:08.305Z,18.90
2019-02-06T12:38:12.325Z,25.30
2019-02-06T12:39:16.080Z,24.90
2019-02-06T12:40:21.846Z,20.37
2019-02-06T12:41:25.647Z,18.97
2019-02-06T12:42:29.777Z,18.43
2019-02-06T12:43:33.462Z,17.83
2019-02-06T12:44:37.118Z,18.33
2019-02-06T12:45:40.824Z,16.57
2019-02-06T12:46:44.504Z,17.13
2019-02-06T12:47:48.175Z,19.07
2019-02-06T12:48:51.922Z,18.20
2019-02-06T12:49:55.959Z,23.17
2019-02-06T12:50:59.576Z,24.73
2019-02-06T12:52:04.126Z,18.43
2019-02-06T12:53:07.933Z,16.90
2019-02-06T12:54:11.578Z,18.37
2019-02-06T12:55:20.741Z,17.33
2019-02-06T12:56:24.401Z,13.73
2019-02-06T12:57:41.306Z,15.33
2019-02-06T12:58:45.053Z,17.13
2019-02-06T12:59:48.695Z,14.07
2019-02-06T13:00:52.330Z,13.70
2019-02-06T13:01:56.030Z,14.43
2019-02-06T13:03:00.439Z,13.80
2019-02-06T13:04:04.222Z,13.03
2019-02-06T13:05:10.188Z,10.77
2019-02-06T13:06:13.749Z,20.93
2019-02-06T13:07:17.665Z,18.17
2019-02-06T13:08:21.776Z,13.87
2019-02-06T13:09:25.448Z,12.33
2019-02-06T13:10:34.162Z,10.57
2019-02-06T13:11:34.453Z,10.70
2019-02-06T13:12:40.180Z,12.27
2019-02-06T13:13:45.335Z,12.77
2019-02-06T13:14:49.162Z,14.23
2019-02-06T13:15:52.797Z,15.30
2019-02-06T13:16:56.430Z,13.87
2019-02-06T13:18:00.066Z,14.50
2019-02-06T13:19:03.801Z,14.47
2019-02-06T13:20:10.385Z,15.60
2019-02-06T13:21:14.020Z,16.33
2019-02-06T13:22:17.659Z,16.93
2019-02-06T13:23:21.683Z,24.67
2019-02-06T13:24:25.325Z,24.50
2019-02-06T13:25:29.001Z,22.20
2019-02-06T13:26:32.636Z,22.53
2019-02-06T13:27:36.274Z,19.73
2019-02-06T13:28:39.915Z,20.37
2019-02-06T13:29:43.551Z,27.60
2019-02-06T13:30:47.215Z,26.80
2019-02-06T13:31:50.855Z,20.97
2019-02-06T13:32:54.492Z,30.43
2019-02-06T13:33:58.131Z,30.37
2019-02-06T13:35:01.775Z,29.37
2019-02-06T13:36:08.724Z,25.90
2019-02-06T13:37:12.551Z,21.60
2019-02-06T13:38:16.739Z,19.30
2019-02-06T13:39:20.373Z,19.87
2019-02-06T13:40:28.399Z,19.17
2019-02-06T13:41:32.059Z,17.63
2019-02-06T13:42:35.690Z,18.33
2019-02-06T13:43:39.371Z,17.90
2019-02-06T13:44:43.000Z,19.30
2019-02-06T13:45:48.839Z,19.70
2019-02-06T13:46:53.611Z,19.97
2019-02-06T13:47:57.520Z,18.27
2019-02-06T13:49:01.192Z,17.83
2019-02-06T13:50:07.771Z,19.80
2019-02-06T13:51:17.387Z,17.83
2019-02-06T13:52:16.912Z,18.37
2019-02-06T13:53:20.557Z,18.60
2019-02-06T13:54:24.616Z,19.77
2019-02-06T13:55:28.453Z,19.33
2019-02-06T13:56:36.314Z,15.87
2019-02-06T13:57:39.943Z,18.70
2019-02-06T13:58:45.016Z,19.97
2019-02-06T13:59:48.802Z,19.03
2019-02-06T14:00:52.983Z,20.80
2019-02-06T14:01:56.743Z,27.07
2019-02-06T14:03:01.068Z,23.00
2019-02-06T14:04:04.705Z,26.60
2019-02-06T14:05:09.021Z,26.03
2019-02-06T14:06:16.641Z,24.97
2019-02-06T14:07:20.359Z,26.47
2019-02-06T14:08:29.895Z,26.87
2019-02-06T14:09:33.535Z,28.97
2019-02-06T14:10:37.172Z,25.53
2019-02-06T14:11:42.637Z,25.37
2019-02-06T14:12:48.095Z,23.70
2019-02-06T14:13:54.596Z,24.30
2019-02-06T14:14:58.243Z,22.97
2019-02-06T14:16:02.826Z,22.93
2019-02-06T14:17:06.469Z,22.33
2019-02-06T14:18:11.338Z,24.03
2019-02-06T14:19:14.969Z,24.17
2019-02-06T14:20:20.942Z,25.83
2019-02-06T14:21:24.613Z,28.37
2019-02-06T14:22:46.867Z,34.73
2019-02-06T14:23:56.318Z,32.50
2019-02-06T14:25:00.331Z,40.27
2019-02-06T14:26:24.889Z,45.20
2019-02-06T14:27:34.422Z,36.67
2019-02-06T14:28:56.732Z,25.00
2019-02-06T14:30:18.751Z,21.63
2019-02-06T14:31:52.411Z,31.63
2019-02-06T14:33:13.937Z,45.27
2019-02-06T14:34:23.056Z,40.97
2019-02-06T14:35:35.563Z,34.70
2019-02-06T14:36:44.925Z,31.77
2019-02-06T14:37:54.532Z,29.60
2019-02-06T14:39:04.979Z,50.07
2019-02-06T14:40:20.489Z,45.53
2019-02-06T14:41:36.185Z,42.03
2019-02-06T14:42:52.302Z,26.87
2019-02-06T14:44:18.423Z,32.77
2019-02-06T14:45:41.549Z,27.63
2019-02-06T14:47:06.279Z,23.67
2019-02-06T14:48:29.792Z,27.97
2019-02-06T14:49:41.718Z,27.23
2019-02-06T14:51:00.159Z,25.83
2019-02-06T14:52:15.812Z,25.87
2019-02-06T14:53:24.897Z,35.07
2019-02-06T14:54:43.303Z,24.20
2019-02-06T14:55:52.659Z,18.70
2019-02-06T14:57:21.816Z,20.23
2019-02-06T14:58:50.839Z,22.43
2019-02-06T15:00:12.546Z,18.73
2019-02-06T15:01:37.026Z,21.57
2019-02-06T15:02:49.397Z,30.23
2019-02-06T15:04:15.866Z,42.60
2019-02-06T15:05:25.210Z,46.90
2019-02-06T15:06:43.863Z,38.10
2019-02-06T15:07:50.864Z,28.00
2019-02-06T15:09:14.471Z,21.97
2019-02-06T15:10:27.251Z,16.83